Time;durP1;ratioP1;P1;durP2;ratioP2;P2;SDS_P1;SDS_P2;PMS_P1;PMS_P2;Temp;Humidity;BMP_temperature;BMP_pressure;BME280_temperature;BME280_humidity;BME280_pressure;Samples;Min_cycle;Max_cycle;Signal;HPM_P1;HPM_P2
2022/06/06 00:00:42;;;;;;;5.05;4.68;;;;;;;22.83;43.73;100613.06;7392557;19;20085;-66
2022/06/06 00:03:11;;;;;;;6.50;5.53;;;;;;;22.83;43.74;100604.22;7393497;19;20030;-70
2022/06/06 00:05:43;;;;;;;5.70;5.18;;;;;;;22.80;44.13;100607.97;7394583;19;20477;-69
2022/06/06 00:08:12;;;;;;;6.15;5.65;;;;;;;22.81;44.22;100601.66;7393584;19;20014;-69
2022/06/06 00:10:41;;;;;;;6.03;5.53;;;;;;;22.78;44.11;100593.84;7395366;19;20010;-69
2022/06/06 00:13:15;;;;;;;5.63;5.13;;;;;;;22.78;44.50;100604.53;7392281;19;20025;-69
2022/06/06 00:15:44;;;;;;;5.95;5.45;;;;;;;22.72;44.98;100602.31;7394508;19;20401;-69
2022/06/06 00:18:12;;;;;;;5.47;4.97;;;;;;;22.69;45.22;100598.06;7393006;19;20372;-69
2022/06/06 00:20:41;;;;;;;7.07;6.28;;;;;;;22.65;44.82;100598.44;7393281;19;20019;-69
2022/06/06 00:23:09;;;;;;;5.63;5.13;;;;;;;22.61;45.07;100595.97;7394317;19;20376;-70
2022/06/06 00:25:38;;;;;;;6.68;5.45;;;;;;;22.57;45.57;100597.19;7392607;19;20019;-69
2022/06/06 00:28:07;;;;;;;5.75;5.35;;;;;;;22.55;45.72;100595.59;7394327;19;20014;-69
2022/06/06 00:30:38;;;;;;;6.15;5.07;;;;;;;22.52;45.86;100602.03;7394290;19;20028;-70
2022/06/06 00:35:47;;;;;;;5.57;5.18;;;;;;;22.47;46.34;100603.31;7393998;19;20006;-67
2022/06/06 00:38:16;;;;;;;8.15;5.93;;;;;;;22.44;46.38;100605.25;7392502;19;20035;-68
2022/06/06 00:40:50;;;;;;;6.53;5.93;;;;;;;22.43;46.09;100595.53;7394470;19;20031;-68
2022/06/06 00:43:19;;;;;;;6.50;5.90;;;;;;;22.42;46.12;100595.66;7394598;19;20019;-68
2022/06/06 00:45:54;;;;;;;6.55;5.63;;;;;;;22.39;46.62;100590.53;7393567;19;20022;-68
2022/06/06 00:48:27;;;;;;;5.95;5.45;;;;;;;22.39;46.17;100598.53;7394620;19;20018;-68
2022/06/06 00:51:01;;;;;;;6.17;5.67;;;;;;;22.37;46.60;100596.00;7394705;19;20082;-68
2022/06/06 00:53:36;;;;;;;6.75;6.13;;;;;;;22.37;46.51;100589.78;7393546;19;20474;-68
2022/06/06 00:56:11;;;;;;;6.10;5.60;;;;;;;22.34;46.48;100590.81;7392845;19;20018;-71
2022/06/06 00:58:40;;;;;;;6.50;5.95;;;;;;;22.33;46.84;100597.16;7393517;19;20018;-72
2022/06/06 01:01:12;;;;;;;9.07;6.30;;;;;;;22.28;46.61;100589.47;7393489;19;20372;-72
2022/06/06 01:03:42;;;;;;;6.35;5.75;;;;;;;22.24;47.32;100596.00;7393933;19;20356;-72
2022/06/06 01:06:15;;;;;;;6.55;5.97;;;;;;;22.20;47.52;100599.84;7392814;19;20019;-72
2022/06/06 01:08:54;;;;;;;5.97;5.47;;;;;;;22.19;47.11;100600.84;7392529;19;20032;-72
2022/06/06 01:11:28;;;;;;;6.30;5.80;;;;;;;22.13;47.53;100593.28;7391322;19;20030;-72
2022/06/06 01:13:58;;;;;;;6.93;6.43;;;;;;;22.09;47.39;100605.13;7394409;19;20022;-71
2022/06/06 01:16:44;;;;;;;7.03;6.43;;;;;;;22.02;48.27;100598.53;7392273;19;20086;-69
2022/06/06 01:19:38;;;;;;;6.47;5.97;;;;;;;21.99;48.53;100604.97;7393523;19;20031;-71
2022/06/06 01:22:36;;;;;;;7.27;6.57;;;;;;;21.92;48.91;100603.69;7393979;19;20032;-70
2022/06/06 01:25:26;;;;;;;6.38;5.72;;;;;;;21.87;48.43;100619.19;7392427;19;20035;-68
2022/06/06 01:27:59;;;;;;;10.15;7.82;;;;;;;21.78;52.72;100634.03;7401006;19;20031;-66
2022/06/06 01:30:35;;;;;;;12.00;8.23;;;;;;;21.37;57.19;100630.63;7400252;19;20514;-67
2022/06/06 01:33:07;;;;;;;9.02;8.13;;;;;;;20.85;57.17;100631.47;7400916;19;20039;-66
2022/06/06 01:35:39;;;;;;;10.35;8.90;;;;;;;20.40;59.65;100624.59;7399439;19;20533;-69
2022/06/06 01:38:08;;;;;;;11.00;10.10;;;;;;;20.04;61.73;100618.00;7400406;19;20038;-67
2022/06/06 01:40:45;;;;;;;12.07;10.80;;;;;;;19.75;63.62;100612.69;7397288;19;20427;-67
2022/06/06 01:43:17;;;;;;;11.95;10.95;;;;;;;19.53;64.85;100603.34;7399838;19;20489;-67
2022/06/06 01:45:54;;;;;;;11.18;10.27;;;;;;;19.40;66.17;100609.53;7397990;19;20022;-67
2022/06/06 01:48:27;;;;;;;13.13;11.80;;;;;;;19.31;67.06;100600.28;7400501;19;20078;-67
2022/06/06 01:50:55;;;;;;;13.17;12.07;;;;;;;19.24;67.48;100601.63;7397931;19;20018;-67
2022/06/06 01:53:26;;;;;;;13.40;12.30;;;;;;;19.18;68.00;100598.41;7399674;19;20481;-67
2022/06/06 01:55:56;;;;;;;14.20;12.85;;;;;;;19.13;68.81;100604.94;7398874;19;20022;-67
2022/06/06 01:58:26;;;;;;;15.00;13.70;;;;;;;19.09;70.18;100603.41;7397129;19;20022;-67
2022/06/06 02:00:57;;;;;;;15.73;14.43;;;;;;;19.06;70.57;100604.44;7396846;19;20070;-67
2022/06/06 02:03:26;;;;;;;14.65;13.25;;;;;;;19.03;71.25;100609.94;7396691;19;20376;-67
2022/06/06 02:05:55;;;;;;;15.38;14.07;;;;;;;19.00;72.00;100618.94;7397345;19;20086;-67
2022/06/06 02:08:23;;;;;;;16.77;15.38;;;;;;;18.93;72.91;100622.94;7396681;19;20537;-67
2022/06/06 02:10:52;;;;;;;16.25;14.85;;;;;;;18.82;73.66;100622.69;7396503;19;20348;-68
2022/06/06 02:13:21;;;;;;;17.13;15.63;;;;;;;18.71;74.86;100626.78;7398817;19;20434;-66
2022/06/06 02:15:50;;;;;;;16.80;15.27;;;;;;;18.62;76.00;100622.00;7397631;19;20396;-67
2022/06/06 02:18:22;;;;;;;16.95;15.35;;;;;;;18.56;76.65;100636.53;7396250;19;20108;-67
2022/06/06 02:20:51;;;;;;;17.65;15.95;;;;;;;18.51;77.39;100635.06;7399270;19;20010;-68
2022/06/06 02:23:19;;;;;;;18.05;16.35;;;;;;;18.49;78.08;100639.63;7396336;19;20028;-68
2022/06/06 02:25:48;;;;;;;17.63;16.02;;;;;;;18.45;78.36;100630.09;7396078;19;20073;-68
2022/06/06 02:28:17;;;;;;;19.63;17.75;;;;;;;18.42;79.07;100646.22;7396159;19;20034;-68
2022/06/06 02:30:45;;;;;;;19.90;18.08;;;;;;;18.38;79.07;100649.03;7396345;19;20078;-68
2022/06/06 02:33:14;;;;;;;21.88;19.90;;;;;;;18.36;80.90;100658.00;7396076;19;20485;-69
2022/06/06 02:35:45;;;;;;;25.30;22.83;;;;;;;18.29;81.68;100660.16;7395248;19;20086;-70
2022/06/06 02:38:15;;;;;;;27.98;25.35;;;;;;;18.17;84.38;100660.84;7398928;19;20022;-70
2022/06/06 02:40:44;;;;;;;28.70;25.88;;;;;;;18.00;86.07;100670.59;7397867;19;20035;-71
2022/06/06 02:43:14;;;;;;;34.92;29.30;;;;;;;17.89;88.14;100675.56;7397893;19;20485;-69
2022/06/06 02:45:46;;;;;;;32.70;29.23;;;;;;;17.80;88.85;100682.22;7396329;19;20070;-69
2022/06/06 02:48:16;;;;;;;34.20;30.63;;;;;;;17.69;88.87;100682.81;7398512;19;20014;-69
2022/06/06 02:50:47;;;;;;;38.40;33.88;;;;;;;17.66;88.94;100684.78;7397483;19;20022;-69
2022/06/06 02:53:16;;;;;;;40.05;35.67;;;;;;;17.63;89.22;100682.25;7396601;19;20023;-69
2022/06/06 02:55:45;;;;;;;42.28;37.25;;;;;;;17.62;89.88;100689.38;7395511;19;20032;-69
2022/06/06 02:58:13;;;;;;;37.50;33.50;;;;;;;17.61;92.20;100692.13;7397678;19;20038;-69
2022/06/06 03:00:43;;;;;;;38.17;33.00;;;;;;;17.56;92.28;100702.94;7397053;19;20035;-69
2022/06/06 03:03:12;;;;;;;38.78;34.00;;;;;;;17.52;91.24;100723.47;7397488;19;20018;-69
2022/06/06 03:05:57;;;;;;;27.10;24.33;;;;;;;17.50;93.02;100729.78;7395913;19;20025;-69
2022/06/06 03:08:40;;;;;;;23.98;21.77;;;;;;;17.41;92.89;100734.63;7395582;19;20031;-69
2022/06/06 03:11:22;;;;;;;27.20;24.35;;;;;;;17.33;92.35;100735.97;7395797;19;20090;-69
2022/06/06 03:14:05;;;;;;;26.70;19.38;;;;;;;17.27;94.10;100747.72;7397568;19;20364;-69
2022/06/06 03:22:42;;;;;;;19.58;17.58;;;;;;;16.92;94.02;100737.03;7396943;19;20006;-68
2022/06/06 03:25:18;;;;;;;18.17;16.48;;;;;;;16.84;94.27;100729.44;7396132;19;20018;-68
2022/06/06 03:27:53;;;;;;;20.67;18.67;;;;;;;16.78;92.95;100720.00;7395075;19;20022;-68
2022/06/06 03:30:29;;;;;;;24.05;21.15;;;;;;;16.77;93.58;100717.44;7395239;19;20014;-68
2022/06/06 03:33:10;;;;;;;27.45;24.13;;;;;;;16.80;93.13;100733.19;7396837;19;20036;-68
2022/06/06 03:35:47;;;;;;;27.65;24.70;;;;;;;16.82;93.11;100739.28;7396014;19;20029;-68
2022/06/06 03:38:24;;;;;;;28.80;24.77;;;;;;;16.85;93.41;100731.16;7396185;19;20014;-68
2022/06/06 03:41:01;;;;;;;28.65;25.05;;;;;;;16.87;93.27;100734.59;7396493;19;20082;-68
2022/06/06 03:43:40;;;;;;;30.67;26.23;;;;;;;16.90;93.35;100738.91;7395532;19;20082;-68
2022/06/06 03:46:21;;;;;;;29.15;25.42;;;;;;;16.91;93.07;100735.34;7394550;19;20353;-68
2022/06/06 03:49:01;;;;;;;32.92;26.55;;;;;;;16.92;93.53;100735.28;7392098;19;20482;-68
2022/06/06 03:51:40;;;;;;;30.15;24.70;;;;;;;16.96;93.71;100727.16;7394514;19;20089;-68
2022/06/06 03:54:23;;;;;;;28.45;24.85;;;;;;;16.96;94.03;100733.34;7395918;19;20010;-68
2022/06/06 03:57:04;;;;;;;27.75;24.85;;;;;;;16.96;93.82;100735.97;7394594;19;20018;-68
2022/06/06 03:59:33;;;;;;;29.48;26.40;;;;;;;16.94;93.73;100736.03;7394414;19;20022;-68
2022/06/06 04:02:06;;;;;;;33.10;28.33;;;;;;;16.97;93.94;100740.31;7395597;19;20018;-68
2022/06/06 04:04:36;;;;;;;30.48;27.08;;;;;;;17.00;94.08;100752.59;7393320;19;20027;-68
2022/06/06 04:07:06;;;;;;;30.30;27.00;;;;;;;17.01;93.97;100751.63;7393454;19;20481;-68
2022/06/06 04:09:37;;;;;;;28.15;25.25;;;;;;;17.03;94.18;100760.38;7394090;19;20014;-68
2022/06/06 04:12:25;;;;;;;29.00;26.10;;;;;;;17.03;94.60;100763.88;7395403;19;20032;-68
2022/06/06 04:15:04;;;;;;;30.55;26.85;;;;;;;17.03;94.40;100765.69;7394805;19;20014;-67
2022/06/06 04:17:41;;;;;;;28.50;25.52;;;;;;;17.02;94.59;100762.19;7394016;19;20014;-68
2022/06/06 04:20:23;;;;;;;29.60;26.70;;;;;;;17.03;94.77;100761.22;7393529;19;20246;-68
2022/06/06 04:23:09;;;;;;;29.20;26.20;;;;;;;17.05;94.79;100783.22;7393084;19;20548;-68
2022/06/06 04:25:48;;;;;;;31.65;28.33;;;;;;;17.05;94.86;100775.28;7392511;19;20022;-68
2022/06/06 04:28:26;;;;;;;30.45;27.10;;;;;;;17.06;95.09;100774.34;7394246;19;20345;-68
2022/06/06 04:31:01;;;;;;;31.02;27.92;;;;;;;17.07;94.71;100785.81;7393276;19;20110;-68
2022/06/06 04:33:35;;;;;;;29.60;26.50;;;;;;;17.07;95.03;100784.03;7392921;19;20011;-68
2022/06/06 04:36:13;;;;;;;28.65;25.58;;;;;;;17.10;95.68;100778.56;7394185;19;20129;-68
2022/06/06 04:38:49;;;;;;;29.38;26.27;;;;;;;17.12;95.01;100780.28;7392372;19;20028;-68
2022/06/06 04:41:29;;;;;;;28.95;26.00;;;;;;;17.15;95.25;100782.78;7392988;19;20073;-68
2022/06/06 04:44:07;;;;;;;27.77;24.95;;;;;;;17.16;95.60;100788.03;7395066;19;20031;-68
2022/06/06 04:46:45;;;;;;;28.70;25.67;;;;;;;17.19;95.26;100787.03;7392277;19;20027;-68
2022/06/06 04:49:14;;;;;;;29.30;26.15;;;;;;;17.21;95.35;100785.13;7394810;19;20037;-68
2022/06/06 04:51:45;;;;;;;28.83;25.83;;;;;;;17.24;95.49;100785.00;7394244;19;20022;-68
2022/06/06 04:54:19;;;;;;;28.10;25.15;;;;;;;17.27;95.71;100779.53;7392029;19;20066;-68
2022/06/06 04:56:52;;;;;;;28.65;25.70;;;;;;;17.30;95.51;100787.34;7391878;19;20070;-68
2022/06/06 04:59:23;;;;;;;25.73;23.23;;;;;;;17.34;95.93;100799.50;7395508;19;20216;-69
2022/06/06 05:01:51;;;;;;;29.08;26.17;;;;;;;17.37;95.67;100795.84;7398810;19;20085;-68
2022/06/06 05:04:20;;;;;;;29.58;26.58;;;;;;;17.41;95.54;100800.94;7401023;19;20027;-68
2022/06/06 05:07:11;;;;;;;29.90;26.85;;;;;;;17.49;95.61;100804.97;7398327;19;20019;-68
2022/06/06 05:10:10;;;;;;;27.90;24.98;;;;;;;17.55;95.93;100815.28;7398557;19;20090;-68
2022/06/06 05:13:10;;;;;;;28.75;25.98;;;;;;;17.59;95.94;100817.72;7397708;19;20031;-68
2022/06/06 05:15:47;;;;;;;27.63;24.85;;;;;;;17.61;95.95;100820.28;7400721;19;20074;-68
2022/06/06 05:18:31;;;;;;;27.08;24.27;;;;;;;17.67;96.13;100816.50;7401381;19;20035;-68
2022/06/06 05:21:23;;;;;;;26.25;23.58;;;;;;;17.71;95.45;100826.00;7398053;19;20018;-68
2022/06/06 05:24:08;;;;;;;27.48;24.63;;;;;;;17.75;95.38;100824.91;7397797;19;20015;-68
2022/06/06 05:26:52;;;;;;;28.92;25.98;;;;;;;17.82;95.17;100833.41;7398139;19;20558;-68
2022/06/06 05:29:39;;;;;;;28.08;25.10;;;;;;;17.86;95.70;100827.88;7398448;19;20228;-67
2022/06/06 05:32:25;;;;;;;26.38;23.65;;;;;;;17.89;95.89;100834.81;7400210;19;20014;-68
2022/06/06 05:35:01;;;;;;;26.25;23.65;;;;;;;17.90;95.98;100834.72;7400622;19;20018;-67
2022/06/06 05:37:42;;;;;;;26.10;23.60;;;;;;;17.92;95.38;100832.03;7398505;19;20415;-67
2022/06/06 05:40:20;;;;;;;24.63;22.13;;;;;;;17.95;95.13;100839.84;7397051;19;20014;-68
2022/06/06 05:43:08;;;;;;;23.42;21.08;;;;;;;18.00;95.52;100832.50;7399950;19;20430;-68
2022/06/06 05:45:49;;;;;;;23.38;21.08;;;;;;;18.03;95.23;100837.66;7398780;19;20477;-68
2022/06/06 05:48:28;;;;;;;21.45;19.58;;;;;;;18.04;95.10;100849.13;7400443;19;20021;-68
2022/06/06 05:51:12;;;;;;;21.70;19.70;;;;;;;18.06;95.07;100850.78;7396889;19;20010;-68
2022/06/06 05:54:07;;;;;;;21.38;19.38;;;;;;;18.08;94.50;100853.34;7397757;19;20032;-68
2022/06/06 05:56:58;;;;;;;20.15;18.35;;;;;;;18.07;94.45;100855.16;7397245;19;20026;-68
2022/06/06 05:59:48;;;;;;;20.42;18.35;;;;;;;18.07;93.93;100860.47;7399310;19;20031;-68
2022/06/06 06:02:34;;;;;;;20.92;18.83;;;;;;;18.09;94.13;100864.84;7397028;19;20075;-67
2022/06/06 06:05:18;;;;;;;18.77;16.90;;;;;;;18.09;93.79;100864.84;7396660;19;20027;-68
2022/06/06 06:08:00;;;;;;;;;;;;;;;18.11;93.39;100873.56;7400405;19;20026;-68
2022/06/06 06:10:35;;;;;;;16.98;15.48;;;;;;;18.09;93.06;100865.69;7396194;19;19919;-67
2022/06/06 06:13:34;;;;;;;16.52;14.98;;;;;;;18.07;92.53;100867.53;7399117;19;20022;-67
2022/06/06 06:16:06;;;;;;;14.43;13.20;;;;;;;18.04;92.10;100870.38;7395873;19;20490;-67
2022/06/06 06:18:43;;;;;;;14.27;12.93;;;;;;;18.02;92.08;100872.22;7396242;19;20537;-67
2022/06/06 06:21:14;;;;;;;14.57;13.23;;;;;;;17.99;91.43;100878.56;7399171;19;20037;-67
2022/06/06 06:23:50;;;;;;;13.52;12.15;;;;;;;17.99;91.16;100883.03;7395897;19;20082;-68
2022/06/06 06:26:19;;;;;;;12.90;11.70;;;;;;;17.98;91.17;100879.50;7396425;19;20114;-67
2022/06/06 06:28:50;;;;;;;13.52;12.18;;;;;;;17.99;90.89;100883.03;7398591;19;20014;-68
2022/06/06 06:31:37;;;;;;;13.38;12.02;;;;;;;17.99;90.90;100873.25;7398941;19;20014;-67
2022/06/06 06:34:31;;;;;;;14.23;12.70;;;;;;;18.06;90.91;100876.47;7396212;19;20035;-67
2022/06/06 06:37:16;;;;;;;14.53;13.07;;;;;;;18.11;90.69;100881.53;7396625;19;20029;-67
2022/06/06 06:39:58;;;;;;;14.43;10.63;;;;;;;18.15;89.96;100883.97;7398458;19;20022;-67
2022/06/06 06:42:43;;;;;;;9.20;8.40;;;;;;;18.17;89.03;100870.59;7397600;19;20018;-68
2022/06/06 06:45:18;;;;;;;11.55;9.00;;;;;;;18.19;88.47;100871.38;7395494;19;20018;-67
2022/06/06 06:47:52;;;;;;;9.43;8.23;;;;;;;18.21;87.91;100883.66;7396377;19;20014;-67
2022/06/06 06:50:27;;;;;;;9.50;8.55;;;;;;;18.24;87.94;100864.88;7398148;19;20031;-67
2022/06/06 06:53:09;;;;;;;8.95;8.07;;;;;;;18.31;87.14;100870.75;7398022;19;20035;-68
2022/06/06 06:55:50;;;;;;;7.40;6.80;;;;;;;18.35;85.90;100882.94;7396569;19;20082;-67
2022/06/06 06:58:42;;;;;;;7.32;6.55;;;;;;;18.36;82.62;100879.34;7397928;19;20043;-67
2022/06/06 07:01:16;;;;;;;7.53;6.15;;;;;;;18.37;83.24;100883.72;7397539;19;20436;-67
2022/06/06 07:10:00;;;;;;;5.90;5.35;;;;;;;18.46;77.40;100878.84;7395814;19;20457;-67
2022/06/06 07:12:45;;;;;;;6.13;5.63;;;;;;;18.50;79.71;100877.72;7394913;19;20390;-67
2022/06/06 07:15:25;;;;;;;6.45;5.72;;;;;;;18.58;79.76;100880.84;7395380;19;20019;-66
2022/06/06 07:17:58;;;;;;;6.80;6.10;;;;;;;18.67;79.08;100868.88;7398294;19;20014;-67
2022/06/06 07:20:29;;;;;;;7.63;6.93;;;;;;;18.75;79.15;100873.78;7397167;19;20014;-67
2022/06/06 07:23:05;;;;;;;7.32;6.70;;;;;;;18.83;79.32;100867.09;7391954;19;20031;-67
2022/06/06 07:25:38;;;;;;;7.55;6.57;;;;;;;18.91;79.10;100869.38;7394982;19;20023;-67
2022/06/06 07:28:10;;;;;;;5.90;5.40;;;;;;;18.99;78.84;100864.50;7397043;19;20078;-67
2022/06/06 07:30:44;;;;;;;6.88;6.00;;;;;;;19.08;78.21;100871.09;7394389;19;20022;-67
2022/06/06 07:33:28;;;;;;;7.15;6.20;;;;;;;19.15;76.94;100874.28;7396361;19;20022;-66
2022/06/06 07:36:06;;;;;;;6.63;6.03;;;;;;;19.20;77.66;100859.78;7394163;19;20376;-67
2022/06/06 07:38:48;;;;;;;6.65;5.57;;;;;;;19.25;76.69;100856.88;7393989;19;20019;-67
2022/06/06 07:41:29;;;;;;;5.80;5.25;;;;;;;19.27;76.30;100857.66;7396271;19;20022;-67
2022/06/06 07:44:19;;;;;;;5.30;4.63;;;;;;;19.31;75.50;100853.84;7396165;19;20026;-67
2022/06/06 07:46:59;;;;;;;5.63;5.13;;;;;;;19.34;75.03;100861.66;7393690;19;20498;-67
2022/06/06 07:49:40;;;;;;;4.63;4.20;;;;;;;19.38;73.27;100859.69;7394695;19;20022;-67
2022/06/06 07:52:17;;;;;;;3.75;3.45;;;;;;;19.42;73.36;100863.88;7394538;19;20079;-67
2022/06/06 07:54:55;;;;;;;5.10;3.70;;;;;;;19.47;72.02;100876.91;7394121;19;20014;-67
2022/06/06 07:57:34;;;;;;;5.80;4.28;;;;;;;19.51;72.57;100859.81;7394025;19;20022;-67
2022/06/06 08:00:08;;;;;;;3.92;3.53;;;;;;;19.56;73.24;100868.41;7394227;19;20031;-66
2022/06/06 08:02:50;;;;;;;3.80;3.50;;;;;;;19.63;70.66;100875.09;7395960;19;20018;-67
2022/06/06 08:05:45;;;;;;;4.45;3.60;;;;;;;19.69;71.01;100868.56;7395398;19;20090;-67
2022/06/06 08:08:24;;;;;;;3.65;3.35;;;;;;;19.74;71.29;100866.50;7395763;19;20017;-67
2022/06/06 08:10:55;;;;;;;4.07;3.65;;;;;;;19.81;70.58;100853.69;7394739;19;20011;-66
2022/06/06 08:13:39;;;;;;;3.90;3.33;;;;;;;19.89;68.65;100859.44;7395504;19;20090;-67
2022/06/06 08:16:20;;;;;;;4.15;3.75;;;;;;;19.99;68.88;100857.06;7394681;19;20054;-67
2022/06/06 08:19:22;;;;;;;7.03;3.30;;;;;;;20.12;67.51;100857.19;7394597;19;20494;-67
2022/06/06 08:21:52;;;;;;;3.95;3.55;;;;;;;20.23;68.69;100856.56;7394439;19;20579;-66
2022/06/06 08:24:26;;;;;;;4.05;3.30;;;;;;;20.34;67.90;100848.78;7394465;19;20014;-67
2022/06/06 08:27:00;;;;;;;3.92;3.40;;;;;;;20.50;66.83;100848.69;7392981;19;20019;-67
2022/06/06 08:29:30;;;;;;;3.53;3.22;;;;;;;20.62;66.93;100847.91;7395150;19;20026;-66
2022/06/06 08:31:59;;;;;;;3.80;3.47;;;;;;;20.75;66.60;100847.16;7391713;19;20018;-67
2022/06/06 08:34:27;;;;;;;5.95;3.17;;;;;;;20.85;66.56;100853.63;7397855;19;20019;-66
2022/06/06 08:37:22;;;;;;;3.92;3.35;;;;;;;20.94;65.31;100852.19;7399041;19;20094;-66
2022/06/06 08:40:00;;;;;;;5.32;2.97;;;;;;;21.03;65.11;100848.09;7401969;19;20078;-66
2022/06/06 08:42:41;;;;;;;4.70;3.92;;;;;;;21.09;65.00;100840.56;7399630;19;20014;-66
2022/06/06 08:45:23;;;;;;;3.38;2.95;;;;;;;21.14;63.33;100840.25;7401020;19;20485;-66
2022/06/06 08:48:02;;;;;;;3.65;3.17;;;;;;;21.19;64.28;100835.47;7398268;19;20489;-66
2022/06/06 08:51:02;;;;;;;3.53;2.90;;;;;;;21.25;62.33;100840.41;7400938;19;20086;-66
2022/06/06 08:54:09;;;;;;;3.40;3.10;;;;;;;21.30;62.40;100843.63;7402073;19;20085;-67
2022/06/06 08:57:06;;;;;;;3.33;3.03;;;;;;;21.39;63.44;100841.31;7398749;19;20431;-67
2022/06/06 09:00:06;;;;;;;3.53;2.72;;;;;;;21.47;63.99;100839.00;7398754;19;20018;-66
2022/06/06 09:03:04;;;;;;;3.67;2.63;;;;;;;21.59;64.13;100824.84;7400657;19;20014;-66
2022/06/06 09:05:58;;;;;;;5.35;4.00;;;;;;;21.71;62.18;100830.34;7398440;19;20078;-66
2022/06/06 09:08:57;;;;;;;4.80;2.85;;;;;;;21.81;59.26;100836.75;7396980;19;20019;-66
2022/06/06 09:11:59;;;;;;;3.42;2.72;;;;;;;21.84;58.11;100825.88;7398179;19;20031;-67
2022/06/06 09:14:50;;;;;;;3.50;2.10;;;;;;;21.87;59.02;100831.00;7401610;19;20018;-67
2022/06/06 09:17:47;;;;;;;3.20;2.75;;;;;;;21.84;56.83;100839.25;7398295;19;20094;-66
2022/06/06 09:20:47;;;;;;;4.82;3.05;;;;;;;21.81;58.71;100839.44;7401165;19;20019;-66
2022/06/06 09:23:53;;;;;;;3.08;2.65;;;;;;;21.82;58.23;100835.81;7400150;19;20018;-65
2022/06/06 09:26:35;;;;;;;3.42;2.60;;;;;;;21.90;59.17;100827.25;7397660;19;20541;-66
2022/06/06 09:29:48;;;;;;;3.30;2.40;;;;;;;22.04;57.32;100827.19;7400211;19;20070;-66
2022/06/06 09:33:01;;;;;;;3.42;2.80;;;;;;;22.22;57.11;100825.06;7400568;19;20014;-66
2022/06/06 09:36:05;;;;;;;3.53;3.22;;;;;;;22.37;55.34;100828.50;7400310;19;20082;-66
2022/06/06 09:38:55;;;;;;;3.58;2.90;;;;;;;22.47;56.59;100828.72;7400282;19;20078;-66
2022/06/06 09:41:40;;;;;;;3.13;2.63;;;;;;;22.54;56.45;100829.97;7396376;19;20010;-67
2022/06/06 09:44:25;;;;;;;4.15;2.63;;;;;;;22.60;56.88;100829.53;7398863;19;20021;-65
2022/06/06 09:47:27;;;;;;;5.40;2.13;;;;;;;22.63;55.24;100832.97;7395251;19;20018;-66
2022/06/06 09:50:20;;;;;;;3.47;2.92;;;;;;;22.59;56.40;100833.16;7400311;19;20035;-67
2022/06/06 09:53:17;;;;;;;3.35;2.83;;;;;;;22.63;55.50;100839.16;7396544;19;20022;-67
2022/06/06 09:59:39;;;;;;;5.40;2.60;;;;;;;22.82;52.77;100836.03;7399834;19;20354;-67
2022/06/06 10:02:52;;;;;;;3.92;2.67;;;;;;;22.95;53.70;100833.34;7399475;19;20015;-67
2022/06/06 10:05:52;;;;;;;2.80;2.50;;;;;;;23.12;54.87;100828.56;7397160;19;20035;-69
2022/06/06 10:08:58;;;;;;;3.38;2.42;;;;;;;23.16;49.86;100828.25;7397644;19;20035;-68
2022/06/06 10:11:53;;;;;;;3.25;2.42;;;;;;;23.26;51.74;100823.91;7396610;19;20372;-67
2022/06/06 10:14:42;;;;;;;2.85;2.05;;;;;;;23.35;52.63;100818.88;7396997;19;20036;-67
2022/06/06 10:17:32;;;;;;;3.72;2.25;;;;;;;23.43;51.55;100827.19;7396685;19;20031;-68
2022/06/06 10:20:18;;;;;;;3.60;2.45;;;;;;;23.45;49.88;100835.09;7395628;19;20455;-66
2022/06/06 10:23:04;;;;;;;3.30;2.33;;;;;;;23.45;51.44;100843.97;7398572;19;20014;-67
2022/06/06 10:26:04;;;;;;;4.32;2.83;;;;;;;23.40;50.40;100832.75;7397959;19;20408;-66
2022/06/06 10:29:00;;;;;;;2.85;2.38;;;;;;;23.37;49.86;100827.63;7395825;19;20019;-66
2022/06/06 10:31:51;;;;;;;2.50;2.30;;;;;;;23.38;49.73;100829.31;7398497;19;20077;-67
2022/06/06 10:34:50;;;;;;;3.17;1.98;;;;;;;23.49;50.53;100839.25;7397940;19;20552;-67
2022/06/06 10:37:37;;;;;;;4.18;2.35;;;;;;;23.62;49.44;100833.81;7395449;19;20024;-66
2022/06/06 10:40:23;;;;;;;3.53;2.58;;;;;;;23.76;49.35;100841.66;7397034;19;20493;-67
2022/06/06 10:43:13;;;;;;;3.90;2.30;;;;;;;23.85;47.19;100835.59;7398235;19;20391;-68
2022/06/06 10:45:49;;;;;;;3.88;2.05;;;;;;;23.91;47.85;100837.84;7396947;19;20015;-67
2022/06/06 10:48:41;;;;;;;2.67;2.08;;;;;;;24.00;48.35;100835.41;7395862;19;20014;-68
2022/06/06 10:51:53;;;;;;;2.15;1.63;;;;;;;24.00;47.83;100809.50;7397562;19;20043;-67
2022/06/06 10:54:51;;;;;;;4.10;2.13;;;;;;;24.07;47.77;100828.63;7393390;19;20031;-67
2022/06/06 10:57:44;;;;;;;5.63;1.75;;;;;;;24.06;46.15;100832.25;7394465;19;20078;-67
2022/06/06 11:00:28;;;;;;;2.90;2.00;;;;;;;24.06;48.43;100819.75;7397760;19;20100;-67
2022/06/06 11:03:22;;;;;;;3.63;2.15;;;;;;;24.04;47.52;100819.00;7394646;19;20011;-67
2022/06/06 11:06:26;;;;;;;2.53;2.28;;;;;;;24.04;48.60;100821.66;7396167;19;20021;-67
2022/06/06 11:09:14;;;;;;;5.07;2.58;;;;;;;24.08;48.88;100823.13;7393399;19;20488;-67
2022/06/06 11:12:24;;;;;;;2.60;2.40;;;;;;;24.17;48.42;100826.91;7395763;19;20389;-67
2022/06/06 11:14:56;;;;;;;3.88;2.45;;;;;;;24.26;49.70;100819.16;7392448;19;20026;-67
2022/06/06 11:17:55;;;;;;;4.57;2.63;;;;;;;24.37;48.52;100817.31;7393848;19;20035;-67
2022/06/06 11:21:07;;;;;;;3.42;2.40;;;;;;;24.48;48.06;100810.25;7394517;19;20375;-67
2022/06/06 11:23:45;;;;;;;3.50;2.72;;;;;;;24.59;46.40;100818.28;7396260;19;20435;-67
2022/06/06 11:26:34;;;;;;;3.10;1.95;;;;;;;24.63;46.30;100813.53;7395027;19;20031;-67
2022/06/06 11:29:42;;;;;;;3.15;2.28;;;;;;;24.64;45.90;100807.19;7395059;19;20031;-66
2022/06/06 11:32:46;;;;;;;2.92;2.03;;;;;;;24.69;45.34;100816.63;7396556;19;20098;-66
2022/06/06 11:35:34;;;;;;;2.55;2.35;;;;;;;24.73;44.23;100811.84;7395549;19;20015;-66
2022/06/06 11:38:41;;;;;;;2.97;2.28;;;;;;;24.72;45.01;100811.00;7395781;19;20350;-67
2022/06/06 11:41:33;;;;;;;3.60;2.78;;;;;;;24.74;44.32;100807.34;7395412;19;20332;-66
2022/06/06 11:44:12;;;;;;;3.92;2.10;;;;;;;24.81;45.25;100808.56;7395619;19;20015;-66
2022/06/06 11:47:07;;;;;;;3.67;2.22;;;;;;;24.87;44.95;100806.22;7394163;19;20092;-66
2022/06/06 11:50:18;;;;;;;2.75;1.98;;;;;;;24.99;44.75;100801.69;7395668;19;20027;-66
2022/06/06 11:53:24;;;;;;;1.85;1.67;;;;;;;25.17;43.56;100790.41;7393996;19;20027;-66
2022/06/06 11:56:08;;;;;;;2.63;2.22;;;;;;;25.39;43.74;100800.25;7394070;19;20383;-68
2022/06/06 11:59:19;;;;;;;2.90;1.90;;;;;;;25.62;42.62;100792.09;7394488;19;20086;-66
2022/06/06 12:02:27;;;;;;;2.42;1.70;;;;;;;25.74;41.07;100800.94;7394923;19;20016;-67
2022/06/06 12:05:25;;;;;;;3.70;1.63;;;;;;;25.73;40.62;100813.53;7393507;19;20411;-66
2022/06/06 12:08:22;;;;;;;2.40;1.63;;;;;;;25.78;40.85;100805.03;7394292;19;20035;-67
2022/06/06 12:11:04;;;;;;;2.15;1.95;;;;;;;25.80;41.78;100795.03;7392998;19;20419;-67
2022/06/06 12:13:58;;;;;;;2.03;1.83;;;;;;;25.77;40.86;100792.59;7393553;19;20026;-67
2022/06/06 12:16:35;;;;;;;2.75;1.73;;;;;;;25.83;41.60;100787.56;7392942;19;20031;-67
2022/06/06 12:19:42;;;;;;;3.55;2.20;;;;;;;25.90;41.22;100790.56;7395344;19;20035;-67
2022/06/06 12:22:42;;;;;;;4.20;1.90;;;;;;;25.92;41.03;100790.41;7394554;19;20014;-66
2022/06/06 12:25:47;;;;;;;2.22;1.50;;;;;;;25.90;41.88;100781.66;7392800;19;20018;-67
2022/06/06 12:28:42;;;;;;;2.45;1.85;;;;;;;25.94;42.46;100781.25;7393980;19;20028;-66
2022/06/06 12:31:26;;;;;;;5.38;2.00;;;;;;;26.00;42.05;100778.03;7392016;19;20031;-66
2022/06/06 12:34:02;;;;;;;3.35;2.00;;;;;;;26.10;41.91;100785.34;7392982;19;20081;-67
2022/06/06 12:36:35;;;;;;;6.57;2.00;;;;;;;26.24;40.95;100773.38;7392743;19;20449;-66
2022/06/06 12:39:13;;;;;;;3.42;1.85;;;;;;;26.43;40.70;100772.59;7392723;19;20018;-66
2022/06/06 12:41:59;;;;;;;2.03;1.65;;;;;;;26.69;40.65;100769.41;7392419;19;20022;-66
2022/06/06 12:44:41;;;;;;;1.77;1.50;;;;;;;26.91;38.48;100762.97;7394826;19;20023;-66